Time;durP1;ratioP1;P1;durP2;ratioP2;P2;SDS_P1;SDS_P2;PMS_P1;PMS_P2;Temp;Humidity;BMP_temperature;BMP_pressure;BME280_temperature;BME280_humidity;BME280_pressure;Samples;Min_cycle;Max_cycle;Signal;HPM_P1;HPM_P2
2023/07/04 00:01:12;;;;;;;;;;;;;;;;;;5014393;28;19987;-62
2023/07/04 00:03:38;;;;;;;;;;;;;;;;;;5012010;28;19968;-62
2023/07/04 00:06:05;;;;;;;;;;;;;;;;;;5014779;28;20031;-63
2023/07/04 00:08:33;;;;;;;;;;;;;;;;;;5026374;28;20008;-63
2023/07/04 00:10:59;;;;;;;;;;;;;;;;;;5013957;28;19933;-64
2023/07/04 00:13:25;;;;;;;;;;;;;;;;;;5011659;28;19913;-62
2023/07/04 00:15:51;;;;;;;;;;;;;;;;;;5012885;28;19917;-62
2023/07/04 00:18:20;;;;;;;;;;;;;;;;;;5013765;28;19968;-62
2023/07/04 00:20:46;;;;;;;;;;;;;;;;;;5014311;28;19921;-62
2023/07/04 00:23:12;;;;;;;;;;;;;;;;;;5013434;28;19989;-62
2023/07/04 00:25:38;;;;;;;;;;;;;;;;;;5012745;28;20284;-62
2023/07/04 00:28:05;;;;;;;;;;;;;;;;;;5014262;28;20000;-63
2023/07/04 00:30:31;;;;;;;;;;;;;;;;;;5013673;28;19914;-62
2023/07/04 00:32:57;;;;;;;;;;;;;;;;;;5019841;28;20358;-62
2023/07/04 00:35:23;;;;;;;;;;;;;;;;;;5013774;28;19964;-62
2023/07/04 00:37:49;;;;;;;;;;;;;;;;;;5015211;28;19997;-62
2023/07/04 00:40:15;;;;;;;;;;;;;;;;;;5025298;28;19921;-62
2023/07/04 00:42:41;;;;;;;;;;;;;;;;;;5012962;28;20318;-62
2023/07/04 00:45:09;;;;;;;;;;;;;;;;;;4995140;28;19957;-62
2023/07/04 00:47:43;;;;;;;;;;;;;;;;;;5012491;28;19972;-62
2023/07/04 00:50:09;;;;;;;;;;;;;;;;;;5012421;28;19917;-63
2023/07/04 00:52:35;;;;;;;;;;;;;;;;;;5011937;28;19922;-63
2023/07/04 00:55:01;;;;;;;;;;;;;;;;;;5014329;28;19998;-62
2023/07/04 00:57:27;;;;;;;;;;;;;;;;;;5025584;28;19914;-62
2023/07/04 00:59:57;;;;;;;;;;;;;;;;;;5031951;28;19933;-62
2023/07/04 01:02:23;;;;;;;;;;;;;;;;;;5012204;28;19924;-62
2023/07/04 01:04:49;;;;;;;;;;;;;;;;;;5014365;28;19953;-62
2023/07/04 01:07:15;;;;;;;;;;;;;;;;;;5012909;28;20377;-63
2023/07/04 01:09:44;;;;;;;;;;;;;;;;;;5012873;28;20312;-62
2023/07/04 01:12:11;;;;;;;;;;;;;;;;;;4993235;28;20350;-63
2023/07/04 01:14:38;;;;;;;;;;;;;;;;;;5011585;28;20004;-62
2023/07/04 01:17:05;;;;;;;;;;;;;;;;;;5012514;28;19913;-62
2023/07/04 01:19:31;;;;;;;;;;;;;;;;;;5011915;28;20444;-62
2023/07/04 01:21:56;;;;;;;;;;;;;;;;;;5011660;28;19976;-62
2023/07/04 01:24:22;;;;;;;;;;;;;;;;;;5012121;28;20059;-62
2023/07/04 01:26:49;;;;;;;;;;;;;;;;;;4996099;28;20328;-63
2023/07/04 01:29:15;;;;;;;;;;;;;;;;;;5009367;28;20004;-63
2023/07/04 01:31:43;;;;;;;;;;;;;;;;;;5008559;28;20060;-62
2023/07/04 01:34:09;;;;;;;;;;;;;;;;;;5011823;28;20283;-62
2023/07/04 01:36:37;;;;;;;;;;;;;;;;;;5024492;28;19956;-63
2023/07/04 01:39:03;;;;;;;;;;;;;;;;;;5022725;28;19963;-62
2023/07/04 01:41:30;;;;;;;;;;;;;;;;;;5009376;28;19921;-61
2023/07/04 01:43:56;;;;;;;;;;;;;;;;;;5013006;28;20004;-62
2023/07/04 01:46:22;;;;;;;;;;;;;;;;;;5010069;28;19909;-62
2023/07/04 01:48:48;;;;;;;;;;;;;;;;;;5011221;28;19962;-62
2023/07/04 01:51:14;;;;;;;;;;;;;;;;;;5013470;28;20400;-62
2023/07/04 01:53:40;;;;;;;;;;;;;;;;;;5011371;28;19913;-62
2023/07/04 01:56:06;;;;;;;;;;;;;;;;;;5011908;28;19956;-62
2023/07/04 01:58:31;;;;;;;;;;;;;;;;;;5011680;28;19917;-62
2023/07/04 02:00:57;;;;;;;;;;;;;;;;;;5009310;28;20328;-62
2023/07/04 02:03:23;;;;;;;;;;;;;;;;;;4994292;28;19944;-62
2023/07/04 02:05:49;;;;;;;;;;;;;;;;;;5012427;28;20063;-63
2023/07/04 02:08:15;;;;;;;;;;;;;;;;;;5010839;28;19964;-62
2023/07/04 02:10:41;;;;;;;;;;;;;;;;;;5015826;28;20219;-62
2023/07/04 02:13:07;;;;;;;;;;;;;;;;;;5011960;28;19917;-62
2023/07/04 02:15:33;;;;;;;;;;;;;;;;;;5011965;28;19979;-64
2023/07/04 02:17:59;;;;;;;;;;;;;;;;;;5011840;28;20009;-62
2023/07/04 02:20:24;;;;;;;;;;;;;;;;;;5011343;28;19948;-62
2023/07/04 02:22:50;;;;;;;;;;;;;;;;;;5011226;28;19924;-62
2023/07/04 02:25:16;;;;;;;;;;;;;;;;;;5010793;28;20374;-62
2023/07/04 02:27:42;;;;;;;;;;;;;;;;;;5008644;28;19956;-63
2023/07/04 02:30:08;;;;;;;;;;;;;;;;;;5021424;28;19928;-62
2023/07/04 02:32:34;;;;;;;;;;;;;;;;;;5015093;28;19917;-62
2023/07/04 02:35:00;;;;;;;;;;;;;;;;;;5012270;28;19967;-62
2023/07/04 02:37:26;;;;;;;;;;;;;;;;;;5012368;28;19941;-62
2023/07/04 02:39:52;;;;;;;;;;;;;;;;;;5011038;28;19944;-63
2023/07/04 02:42:18;;;;;;;;;;;;;;;;;;5013058;28;19917;-62
2023/07/04 02:44:44;;;;;;;;;;;;;;;;;;5012126;28;19989;-62
2023/07/04 02:47:10;;;;;;;;;;;;;;;;;;5013125;28;20008;-62
2023/07/04 02:49:38;;;;;;;;;;;;;;;;;;5018115;28;19914;-62
2023/07/04 02:52:03;;;;;;;;;;;;;;;;;;5011474;28;19924;-62
2023/07/04 02:54:29;;;;;;;;;;;;;;;;;;5012209;28;20004;-62
2023/07/04 02:56:55;;;;;;;;;;;;;;;;;;4993710;28;19960;-62
2023/07/04 02:59:21;;;;;;;;;;;;;;;;;;5010573;28;20004;-62
2023/07/04 03:01:47;;;;;;;;;;;;;;;;;;5011120;28;20008;-62
2023/07/04 03:04:14;;;;;;;;;;;;;;;;;;4994573;28;19948;-62
2023/07/04 03:06:39;;;;;;;;;;;;;;;;;;5011942;28;19925;-62
2023/07/04 03:09:05;;;;;;;;;;;;;;;;;;5010954;28;19951;-62
2023/07/04 03:11:31;;;;;;;;;;;;;;;;;;5009108;28;19957;-62
2023/07/04 03:13:57;;;;;;;;;;;;;;;;;;5007925;28;20012;-62
2023/07/04 03:16:23;;;;;;;;;;;;;;;;;;5010691;28;19921;-62
2023/07/04 03:18:49;;;;;;;;;;;;;;;;;;5007582;28;20401;-62
2023/07/04 03:21:15;;;;;;;;;;;;;;;;;;5009836;28;19925;-62
2023/07/04 03:23:41;;;;;;;;;;;;;;;;;;5011511;28;20281;-62
2023/07/04 03:26:06;;;;;;;;;;;;;;;;;;5009281;28;19960;-63
2023/07/04 03:28:32;;;;;;;;;;;;;;;;;;5008968;28;19917;-62
2023/07/04 03:30:58;;;;;;;;;;;;;;;;;;5010764;28;19913;-62
2023/07/04 03:33:25;;;;;;;;;;;;;;;;;;5010749;28;19935;-66
2023/07/04 03:35:51;;;;;;;;;;;;;;;;;;5010836;28;19959;-66
2023/07/04 03:38:17;;;;;;;;;;;;;;;;;;5012142;28;19925;-66
2023/07/04 03:40:43;;;;;;;;;;;;;;;;;;5014278;28;19982;-67
2023/07/04 03:43:09;;;;;;;;;;;;;;;;;;5010306;28;19920;-67
2023/07/04 03:45:35;;;;;;;;;;;;;;;;;;5010013;28;20377;-66
2023/07/04 03:48:01;;;;;;;;;;;;;;;;;;5010157;28;19920;-66
2023/07/04 03:50:26;;;;;;;;;;;;;;;;;;5011241;28;20265;-66
2023/07/04 03:52:52;;;;;;;;;;;;;;;;;;5010807;28;20344;-66
2023/07/04 03:55:18;;;;;;;;;;;;;;;;;;5011219;28;20000;-66
2023/07/04 03:57:44;;;;;;;;;;;;;;;;;;5005688;28;19918;-67
2023/07/04 04:00:11;;;;;;;;;;;;;;;;;;5009917;28;19914;-67
2023/07/04 04:02:36;;;;;;;;;;;;;;;;;;4997335;28;20354;-67
2023/07/04 04:05:02;;;;;;;;;;;;;;;;;;5009038;28;20004;-66
2023/07/04 04:07:28;;;;;;;;;;;;;;;;;;5012523;28;19957;-67
2023/07/04 04:09:54;;;;;;;;;;;;;;;;;;5006161;28;19957;-66
2023/07/04 04:12:20;;;;;;;;;;;;;;;;;;5012937;28;19919;-66
2023/07/04 04:14:46;;;;;;;;;;;;;;;;;;5014390;28;20361;-67
2023/07/04 04:17:13;;;;;;;;;;;;;;;;;;5010647;28;19922;-67
2023/07/04 04:19:39;;;;;;;;;;;;;;;;;;5010293;28;20337;-65
2023/07/04 04:22:04;;;;;;;;;;;;;;;;;;5010619;28;19925;-66
2023/07/04 04:24:30;;;;;;;;;;;;;;;;;;5010363;28;19920;-66
2023/07/04 04:26:57;;;;;;;;;;;;;;;;;;5012370;28;20352;-67
2023/07/04 04:29:22;;;;;;;;;;;;;;;;;;5013751;28;19960;-65
2023/07/04 04:31:48;;;;;;;;;;;;;;;;;;5004461;28;20375;-67
2023/07/04 04:34:16;;;;;;;;;;;;;;;;;;5016002;28;20016;-67
2023/07/04 04:36:42;;;;;;;;;;;;;;;;;;5012326;28;19921;-66
2023/07/04 04:39:08;;;;;;;;;;;;;;;;;;5026838;28;19952;-66
2023/07/04 04:41:36;;;;;;;;;;;;;;;;;;5013930;28;19947;-66
2023/07/04 04:44:04;;;;;;;;;;;;;;;;;;5013878;28;19913;-66
2023/07/04 04:46:30;;;;;;;;;;;;;;;;;;5013247;28;20446;-65
2023/07/04 04:48:58;;;;;;;;;;;;;;;;;;5009346;28;19956;-67
2023/07/04 04:51:24;;;;;;;;;;;;;;;;;;5022112;28;19913;-66
2023/07/04 04:53:50;;;;;;;;;;;;;;;;;;5010246;28;19914;-66
2023/07/04 04:56:16;;;;;;;;;;;;;;;;;;5022450;28;20387;-66
2023/07/04 04:58:43;;;;;;;;;;;;;;;;;;5015570;28;19933;-67
2023/07/04 05:01:09;;;;;;;;;;;;;;;;;;5005679;28;20016;-67
2023/07/04 05:03:35;;;;;;;;;;;;;;;;;;5011360;28;20453;-66
2023/07/04 05:06:01;;;;;;;;;;;;;;;;;;5013886;28;19913;-66
2023/07/04 05:08:27;;;;;;;;;;;;;;;;;;5013833;28;19914;-66
2023/07/04 05:10:53;;;;;;;;;;;;;;;;;;5013402;28;19928;-66
2023/07/04 05:13:19;;;;;;;;;;;;;;;;;;5017223;28;20027;-66
2023/07/04 05:15:44;;;;;;;;;;;;;;;;;;5013855;28;19913;-67
2023/07/04 05:18:10;;;;;;;;;;;;;;;;;;5022034;28;20395;-66
2023/07/04 05:20:36;;;;;;;;;;;;;;;;;;5015799;28;19971;-66
2023/07/04 05:23:02;;;;;;;;;;;;;;;;;;5011990;28;19983;-67
2023/07/04 05:25:28;;;;;;;;;;;;;;;;;;5012812;28;20012;-66
2023/07/04 05:27:54;;;;;;;;;;;;;;;;;;5013265;28;19972;-66
2023/07/04 05:30:22;;;;;;;;;;;;;;;;;;5011073;28;19941;-66
2023/07/04 05:32:48;;;;;;;;;;;;;;;;;;5011894;28;19924;-66
2023/07/04 05:35:13;;;;;;;;;;;;;;;;;;5016813;28;20270;-66
2023/07/04 05:37:39;;;;;;;;;;;;;;;;;;5002362;28;19913;-66
2023/07/04 05:40:06;;;;;;;;;;;;;;;;;;4993609;28;19920;-66
2023/07/04 05:42:32;;;;;;;;;;;;;;;;;;5002691;28;19980;-66
2023/07/04 05:44:58;;;;;;;;;;;;;;;;;;5013153;28;20554;-66
2023/07/04 05:47:24;;;;;;;;;;;;;;;;;;5011109;28;19957;-66
2023/07/04 05:49:49;;;;;;;;;;;;;;;;;;5012689;28;19909;-67
2023/07/04 05:52:15;;;;;;;;;;;;;;;;;;5013693;28;19913;-66
2023/07/04 05:54:41;;;;;;;;;;;;;;;;;;5011794;28;19917;-66
2023/07/04 05:57:07;;;;;;;;;;;;;;;;;;5009394;28;19920;-66
2023/07/04 05:59:33;;;;;;;;;;;;;;;;;;5010806;28;19965;-65
2023/07/04 06:01:59;;;;;;;;;;;;;;;;;;5010074;28;20680;-66
2023/07/04 06:04:25;;;;;;;;;;;;;;;;;;5016631;28;20103;-66
2023/07/04 06:06:51;;;;;;;;;;;;;;;;;;5012198;28;20429;-66
2023/07/04 06:09:17;;;;;;;;;;;;;;;;;;5012996;28;19915;-66
2023/07/04 06:11:45;;;;;;;;;;;;;;;;;;5018520;28;19912;-66
2023/07/04 06:14:11;;;;;;;;;;;;;;;;;;5022562;28;20015;-66
2023/07/04 06:16:37;;;;;;;;;;;;;;;;;;5022158;28;20345;-66
2023/07/04 06:19:03;;;;;;;;;;;;;;;;;;5017503;28;19922;-66
2023/07/04 06:21:29;;;;;;;;;;;;;;;;;;5029610;28;20018;-66
2023/07/04 06:23:55;;;;;;;;;;;;;;;;;;5011598;28;19918;-66
2023/07/04 06:26:21;;;;;;;;;;;;;;;;;;5013133;28;19909;-66
2023/07/04 06:28:47;;;;;;;;;;;;;;;;;;5031828;28;19916;-66
2023/07/04 06:31:13;;;;;;;;;;;;;;;;;;5031521;28;20388;-67
2023/07/04 06:33:39;;;;;;;;;;;;;;;;;;5032158;28;19909;-66
2023/07/04 06:36:05;;;;;;;;;;;;;;;;;;5020558;28;20396;-67
2023/07/04 06:38:31;;;;;;;;;;;;;;;;;;5012223;28;20036;-66
2023/07/04 06:40:57;;;;;;;;;;;;;;;;;;5015045;28;20296;-66
2023/07/04 06:43:23;;;;;;;;;;;;;;;;;;5028904;28;19909;-66
2023/07/04 06:45:49;;;;;;;;;;;;;;;;;;5014434;28;20366;-66
2023/07/04 06:48:14;;;;;;;;;;;;;;;;;;5013735;28;20000;-67
2023/07/04 06:50:42;;;;;;;;;;;;;;;;;;5016733;28;20003;-66
2023/07/04 06:53:08;;;;;;;;;;;;;;;;;;5012798;28;19909;-66
2023/07/04 06:55:34;;;;;;;;;;;;;;;;;;5011676;28;19940;-66
2023/07/04 06:58:00;;;;;;;;;;;;;;;;;;5010663;28;20015;-67
2023/07/04 07:00:25;;;;;;;;;;;;;;;;;;5011813;28;19913;-67
2023/07/04 07:02:51;;;;;;;;;;;;;;;;;;5021656;28;20392;-67
2023/07/04 07:05:17;;;;;;;;;;;;;;;;;;5012226;28;19924;-66
2023/07/04 07:07:43;;;;;;;;;;;;;;;;;;5012038;28;20037;-67
2023/07/04 07:10:09;;;;;;;;;;;;;;;;;;5010520;28;19968;-66
2023/07/04 07:12:35;;;;;;;;;;;;;;;;;;5004708;28;20387;-67
2023/07/04 07:15:01;;;;;;;;;;;;;;;;;;5010760;28;19917;-66
2023/07/04 07:17:27;;;;;;;;;;;;;;;;;;5011670;28;19948;-66
2023/07/04 07:19:53;;;;;;;;;;;;;;;;;;5011488;28;19952;-67
2023/07/04 07:22:20;;;;;;;;;;;;;;;;;;5010982;28;21579;-67
2023/07/04 07:24:46;;;;;;;;;;;;;;;;;;5011196;28;19944;-67
2023/07/04 07:27:12;;;;;;;;;;;;;;;;;;5011385;28;20000;-67
2023/07/04 07:29:38;;;;;;;;;;;;;;;;;;5011663;28;19929;-67
2023/07/04 07:32:04;;;;;;;;;;;;;;;;;;5007295;28;19956;-67
2023/07/04 07:34:30;;;;;;;;;;;;;;;;;;5009210;28;19937;-67
2023/07/04 07:36:56;;;;;;;;;;;;;;;;;;5007630;28;19952;-67
2023/07/04 07:39:22;;;;;;;;;;;;;;;;;;5013432;28;20011;-67
2023/07/04 07:41:48;;;;;;;;;;;;;;;;;;5010768;28;19922;-66
2023/07/04 07:44:14;;;;;;;;;;;;;;;;;;5020368;28;20015;-67
2023/07/04 07:46:40;;;;;;;;;;;;;;;;;;5010609;28;19979;-67
2023/07/04 07:49:06;;;;;;;;;;;;;;;;;;5010093;28;19914;-67
2023/07/04 07:51:32;;;;;;;;;;;;;;;;;;5009905;28;20329;-67
2023/07/04 07:53:58;;;;;;;;;;;;;;;;;;5009975;28;19965;-67
2023/07/04 07:56:24;;;;;;;;;;;;;;;;;;5008316;28;19959;-67
2023/07/04 07:58:50;;;;;;;;;;;;;;;;;;5011612;28;20314;-67
2023/07/04 08:01:16;;;;;;;;;;;;;;;;;;4993790;28;20032;-67
2023/07/04 08:03:42;;;;;;;;;;;;;;;;;;5014380;28;19960;-67
2023/07/04 08:06:08;;;;;;;;;;;;;;;;;;5014610;28;19909;-67
2023/07/04 08:08:34;;;;;;;;;;;;;;;;;;5028256;28;20315;-67
2023/07/04 08:10:59;;;;;;;;;;;;;;;;;;5009776;28;20386;-67
2023/07/04 08:13:25;;;;;;;;;;;;;;;;;;5013312;28;19931;-67
2023/07/04 08:15:51;;;;;;;;;;;;;;;;;;4996297;28;20274;-67
2023/07/04 08:18:17;;;;;;;;;;;;;;;;;;5009414;28;20452;-67
2023/07/04 08:20:43;;;;;;;;;;;;;;;;;;5013922;28;19948;-67
2023/07/04 08:23:09;;;;;;;;;;;;;;;;;;5014299;28;19909;-67
2023/07/04 08:25:35;;;;;;;;;;;;;;;;;;5007797;28;19920;-67
2023/07/04 08:28:01;;;;;;;;;;;;;;;;;;5012819;28;20030;-67
2023/07/04 08:30:27;;;;;;;;;;;;;;;;;;5015400;28;19909;-67
2023/07/04 08:32:53;;;;;;;;;;;;;;;;;;5014144;28;19910;-67
2023/07/04 08:35:19;;;;;;;;;;;;;;;;;;5014250;28;19921;-66
2023/07/04 08:37:45;;;;;;;;;;;;;;;;;;5011476;28;19961;-67
2023/07/04 08:40:11;;;;;;;;;;;;;;;;;;5010226;28;19931;-67
2023/07/04 08:42:39;;;;;;;;;;;;;;;;;;5012270;28;19918;-67
2023/07/04 08:45:05;;;;;;;;;;;;;;;;;;5012034;28;19960;-68
2023/07/04 08:47:30;;;;;;;;;;;;;;;;;;5013794;28;20395;-67
2023/07/04 08:49:56;;;;;;;;;;;;;;;;;;5012312;28;19918;-67
2023/07/04 08:52:23;;;;;;;;;;;;;;;;;;5013558;28;19929;-67
2023/07/04 08:54:49;;;;;;;;;;;;;;;;;;4994827;28;19933;-67
2023/07/04 08:57:14;;;;;;;;;;;;;;;;;;5013740;28;19948;-67
2023/07/04 08:59:41;;;;;;;;;;;;;;;;;;5012556;28;19941;-67
2023/07/04 09:02:06;;;;;;;;;;;;;;;;;;5004947;28;19980;-67
2023/07/04 09:04:32;;;;;;;;;;;;;;;;;;5011113;28;19953;-67
2023/07/04 09:06:58;;;;;;;;;;;;;;;;;;5019569;28;20435;-67
2023/07/04 09:09:24;;;;;;;;;;;;;;;;;;5022002;28;19921;-67
2023/07/04 09:11:50;;;;;;;;;;;;;;;;;;5004165;28;19913;-67
2023/07/04 09:14:16;;;;;;;;;;;;;;;;;;5024083;28;19913;-66
2023/07/04 09:16:43;;;;;;;;;;;;;;;;;;5032489;28;19952;-67
2023/07/04 09:19:09;;;;;;;;;;;;;;;;;;5033734;28;19963;-67
2023/07/04 09:21:36;;;;;;;;;;;;;;;;;;5020968;28;19929;-67
2023/07/04 09:24:02;;;;;;;;;;;;;;;;;;5012808;28;20440;-67
2023/07/04 09:26:28;;;;;;;;;;;;;;;;;;5012093;28;19976;-67
2023/07/04 09:28:54;;;;;;;;;;;;;;;;;;5027971;28;19960;-67
2023/07/04 09:31:20;;;;;;;;;;;;;;;;;;5012536;28;19924;-67
2023/07/04 09:33:47;;;;;;;;;;;;;;;;;;5013668;28;20311;-67
2023/07/04 09:36:13;;;;;;;;;;;;;;;;;;5012665;28;19967;-67
2023/07/04 09:38:39;;;;;;;;;;;;;;;;;;5012417;28;19965;-67
2023/07/04 09:41:05;;;;;;;;;;;;;;;;;;5010750;28;19963;-67
2023/07/04 09:43:31;;;;;;;;;;;;;;;;;;5012487;28;19913;-66
2023/07/04 09:45:57;;;;;;;;;;;;;;;;;;5012387;28;19948;-67
2023/07/04 09:48:23;;;;;;;;;;;;;;;;;;5028640;28;20358;-67
2023/07/04 09:50:49;;;;;;;;;;;;;;;;;;5012966;28;19927;-67
2023/07/04 09:53:14;;;;;;;;;;;;;;;;;;5013816;28;20026;-67
2023/07/04 09:55:40;;;;;;;;;;;;;;;;;;5011615;28;20016;-67
2023/07/04 09:58:06;;;;;;;;;;;;;;;;;;5013208;28;19991;-67
2023/07/04 10:00:32;;;;;;;;;;;;;;;;;;5007030;28;19945;-67
2023/07/04 10:02:58;;;;;;;;;;;;;;;;;;5010745;28;19921;-67
2023/07/04 10:05:24;;;;;;;;;;;;;;;;;;5012021;28;19959;-67
2023/07/04 10:07:50;;;;;;;;;;;;;;;;;;5028446;28;19917;-67
2023/07/04 10:10:17;;;;;;;;;;;;;;;;;;5026953;28;20429;-67
2023/07/04 10:12:43;;;;;;;;;;;;;;;;;;5016387;28;19913;-67
2023/07/04 10:15:09;;;;;;;;;;;;;;;;;;5028292;28;20365;-67
2023/07/04 10:17:39;;;;;;;;;;;;;;;;;;5019163;28;20011;-67
2023/07/04 10:20:07;;;;;;;;;;;;;;;;;;5018014;28;19914;-66
2023/07/04 10:22:33;;;;;;;;;;;;;;;;;;4993226;28;19948;-66
2023/07/04 10:24:59;;;;;;;;;;;;;;;;;;5010384;28;19918;-67
2023/07/04 10:27:26;;;;;;;;;;;;;;;;;;5011624;28;19953;-66
2023/07/04 10:29:55;;;;;;;;;;;;;;;;;;5013354;28;19982;-67
2023/07/04 10:32:21;;;;;;;;;;;;;;;;;;5012423;28;19914;-66
2023/07/04 10:34:47;;;;;;;;;;;;;;;;;;5011284;28;20401;-67
2023/07/04 10:37:13;;;;;;;;;;;;;;;;;;5013960;28;20001;-67
2023/07/04 10:39:38;;;;;;;;;;;;;;;;;;5023391;28;19917;-67
2023/07/04 10:42:04;;;;;;;;;;;;;;;;;;5012123;28;19921;-67
2023/07/04 10:44:30;;;;;;;;;;;;;;;;;;5011648;28;20706;-67
2023/07/04 10:46:56;;;;;;;;;;;;;;;;;;5011976;28;19909;-66
2023/07/04 10:49:22;;;;;;;;;;;;;;;;;;5011151;28;20032;-66
2023/07/04 10:51:48;;;;;;;;;;;;;;;;;;5011686;28;20370;-66
2023/07/04 10:54:14;;;;;;;;;;;;;;;;;;5011100;28;20337;-66
2023/07/04 10:56:40;;;;;;;;;;;;;;;;;;5012148;28;19963;-66
2023/07/04 10:59:06;;;;;;;;;;;;;;;;;;5009567;28;20035;-67
2023/07/04 11:01:32;;;;;;;;;;;;;;;;;;5010746;28;20008;-67
2023/07/04 11:03:58;;;;;;;;;;;;;;;;;;5011188;28;19917;-66
2023/07/04 11:06:24;;;;;;;;;;;;;;;;;;5009431;28;20362;-66
2023/07/04 11:08:50;;;;;;;;;;;;;;;;;;5018345;28;19914;-67
2023/07/04 11:11:16;;;;;;;;;;;;;;;;;;5010796;28;19921;-66
2023/07/04 11:13:42;;;;;;;;;;;;;;;;;;5017397;28;19921;-66
2023/07/04 11:16:08;;;;;;;;;;;;;;;;;;5032169;28;20039;-66
2023/07/04 11:18:34;;;;;;;;;;;;;;;;;;5031733;28;19932;-66
2023/07/04 11:21:00;;;;;;;;;;;;;;;;;;5016593;28;19917;-67
2023/07/04 11:23:26;;;;;;;;;;;;;;;;;;5011922;28;19909;-67
2023/07/04 11:25:52;;;;;;;;;;;;;;;;;;5009740;28;19960;-67
2023/07/04 11:28:18;;;;;;;;;;;;;;;;;;5010458;28;20012;-66
2023/07/04 11:30:47;;;;;;;;;;;;;;;;;;5008730;28;20702;-66
2023/07/04 11:33:13;;;;;;;;;;;;;;;;;;5031487;28;20357;-66
2023/07/04 11:35:41;;;;;;;;;;;;;;;;;;5025252;28;19964;-66
2023/07/04 11:38:07;;;;;;;;;;;;;;;;;;5026120;28;19914;-66
2023/07/04 11:40:33;;;;;;;;;;;;;;;;;;5029899;28;20381;-66
2023/07/04 11:42:59;;;;;;;;;;;;;;;;;;5015647;28;19966;-66
2023/07/04 11:45:25;;;;;;;;;;;;;;;;;;5035470;28;19988;-66
2023/07/04 11:47:51;;;;;;;;;;;;;;;;;;5022393;28;20262;-66
2023/07/04 11:50:17;;;;;;;;;;;;;;;;;;5024898;28;19971;-66
2023/07/04 11:52:44;;;;;;;;;;;;;;;;;;5015654;28;19910;-66
2023/07/04 11:55:10;;;;;;;;;;;;;;;;;;5014804;28;19909;-66
2023/07/04 11:57:36;;;;;;;;;;;;;;;;;;5015503;28;19963;-66
2023/07/04 12:00:03;;;;;;;;;;;;;;;;;;5014943;28;19913;-67
2023/07/04 12:02:29;;;;;;;;;;;;;;;;;;5003626;28;19963;-67
2023/07/04 12:04:55;;;;;;;;;;;;;;;;;;5007567;28;19992;-68
2023/07/04 12:07:21;;;;;;;;;;;;;;;;;;4993348;28;20012;-67
2023/07/04 12:09:47;;;;;;;;;;;;;;;;;;5014900;28;19960;-67
2023/07/04 12:12:13;;;;;;;;;;;;;;;;;;5011983;28;20023;-66
2023/07/04 12:14:39;;;;;;;;;;;;;;;;;;5015293;28;19979;-66
2023/07/04 12:17:05;;;;;;;;;;;;;;;;;;5015069;28;20362;-66
2023/07/04 12:19:31;;;;;;;;;;;;;;;;;;5015091;28;19955;-67
2023/07/04 12:21:58;;;;;;;;;;;;;;;;;;5014879;28;20277;-67
2023/07/04 12:24:24;;;;;;;;;;;;;;;;;;5013987;28;20385;-67
2023/07/04 12:26:50;;;;;;;;;;;;;;;;;;5014982;28;20007;-67
2023/07/04 12:29:16;;;;;;;;;;;;;;;;;;5014195;28;19964;-67
2023/07/04 12:31:41;;;;;;;;;;;;;;;;;;4996882;28;19909;-67
2023/07/04 12:34:08;;;;;;;;;;;;;;;;;;5014748;28;19980;-68
2023/07/04 12:36:37;;;;;;;;;;;;;;;;;;5015045;28;20142;-67
2023/07/04 12:39:03;;;;;;;;;;;;;;;;;;5010686;28;19924;-67
2023/07/04 12:41:32;;;;;;;;;;;;;;;;;;5011403;28;20294;-67
2023/07/04 12:44:00;;;;;;;;;;;;;;;;;;5013754;28;20362;-68
2023/07/04 12:46:25;;;;;;;;;;;;;;;;;;5017950;28;19913;-68
2023/07/04 12:48:51;;;;;;;;;;;;;;;;;;5003924;28;20267;-67
2023/07/04 12:51:17;;;;;;;;;;;;;;;;;;5017912;28;19913;-68
2023/07/04 12:53:43;;;;;;;;;;;;;;;;;;5013525;28;19959;-68
2023/07/04 12:56:10;;;;;;;;;;;;;;;;;;5014155;28;19917;-68
2023/07/04 12:58:36;;;;;;;;;;;;;;;;;;5034227;28;19913;-68
2023/07/04 13:01:05;;;;;;;;;;;;;;;;;;5019363;28;19921;-68
2023/07/04 13:03:31;;;;;;;;;;;;;;;;;;5013524;28;19917;-68
2023/07/04 13:05:57;;;;;;;;;;;;;;;;;;5027196;28;20288;-68
2023/07/04 13:08:23;;;;;;;;;;;;;;;;;;5015775;28;20040;-68
2023/07/04 13:10:49;;;;;;;;;;;;;;;;;;5008108;28;19967;-68
2023/07/04 13:13:15;;;;;;;;;;;;;;;;;;5003838;28;19922;-67
2023/07/04 13:15:40;;;;;;;;;;;;;;;;;;5011100;28;19997;-68
2023/07/04 13:18:06;;;;;;;;;;;;;;;;;;5010526;28;19924;-67
2023/07/04 13:20:32;;;;;;;;;;;;;;;;;;5009595;28;19925;-68
2023/07/04 13:22:58;;;;;;;;;;;;;;;;;;5005439;28;19925;-68
2023/07/04 13:25:24;;;;;;;;;;;;;;;;;;5022070;28;19956;-68
2023/07/04 13:27:50;;;;;;;;;;;;;;;;;;5011000;28;19917;-68
2023/07/04 13:30:16;;;;;;;;;;;;;;;;;;5013169;28;19964;-68
2023/07/04 13:32:42;;;;;;;;;;;;;;;;;;5018638;28;19948;-68
2023/07/04 13:35:08;;;;;;;;;;;;;;;;;;5010374;28;19913;-68
2023/07/04 13:37:34;;;;;;;;;;;;;;;;;;5006832;28;20002;-67
2023/07/04 13:40:00;;;;;;;;;;;;;;;;;;5005638;28;20266;-67
2023/07/04 13:42:26;;;;;;;;;;;;;;;;;;5000477;28;19921;-67
2023/07/04 13:44:52;;;;;;;;;;;;;;;;;;5006401;28;20071;-63
2023/07/04 13:47:18;;;;;;;;;;;;;;;;;;5007131;28;19914;-68
2023/07/04 13:49:44;;;;;;;;;;;;;;;;;;5010473;28;21346;-68
2023/07/04 13:52:09;;;;;;;;;;;;;;;;;;5018791;28;20491;-68
2023/07/04 13:54:35;;;;;;;;;;;;;;;;;;5012226;28;19924;-68
2023/07/04 13:57:01;;;;;;;;;;;;;;;;;;5016739;28;19975;-68
2023/07/04 13:59:27;;;;;;;;;;;;;;;;;;5009673;28;20031;-68
2023/07/04 14:01:53;;;;;;;;;;;;;;;;;;5010430;28;20406;-67
2023/07/04 14:04:19;;;;;;;;;;;;;;;;;;5015927;28;20512;-68
2023/07/04 14:06:51;;;;;;;;;;;;;;;;;;5006475;28;19975;-63
2023/07/04 14:09:17;;;;;;;;;;;;;;;;;;5019048;28;20420;-63
2023/07/04 14:11:43;;;;;;;;;;;;;;;;;;5011163;28;20075;-64
2023/07/04 14:14:09;;;;;;;;;;;;;;;;;;5012928;28;19913;-64
2023/07/04 14:16:35;;;;;;;;;;;;;;;;;;5007908;28;19938;-62
2023/07/04 14:19:00;;;;;;;;;;;;;;;;;;5004930;28;19929;-68
2023/07/04 14:21:26;;;;;;;;;;;;;;;;;;5010132;28;19944;-67
2023/07/04 14:23:52;;;;;;;;;;;;;;;;;;5017424;28;19949;-67
2023/07/04 14:26:18;;;;;;;;;;;;;;;;;;5024090;28;19952;-67
2023/07/04 14:28:44;;;;;;;;;;;;;;;;;;5016165;28;20000;-68
2023/07/04 14:31:10;;;;;;;;;;;;;;;;;;4994391;28;19981;-67
2023/07/04 14:33:36;;;;;;;;;;;;;;;;;;5016208;28;20352;-67
2023/07/04 14:36:02;;;;;;;;;;;;;;;;;;5014764;28;19957;-67
2023/07/04 14:38:28;;;;;;;;;;;;;;;;;;5015928;28;19914;-66
2023/07/04 14:40:54;;;;;;;;;;;;;;;;;;5008866;28;19971;-67
2023/07/04 14:43:20;;;;;;;;;;;;;;;;;;5018327;28;19917;-67
2023/07/04 14:45:45;;;;;;;;;;;;;;;;;;5008893;28;19913;-68
2023/07/04 14:48:11;;;;;;;;;;;;;;;;;;5011565;28;20385;-67
2023/07/04 14:50:37;;;;;;;;;;;;;;;;;;5015791;28;19921;-67
2023/07/04 14:53:03;;;;;;;;;;;;;;;;;;5020558;28;20361;-67
2023/07/04 14:55:29;;;;;;;;;;;;;;;;;;5018296;28;19974;-67
2023/07/04 14:57:55;;;;;;;;;;;;;;;;;;5023332;28;20397;-67
2023/07/04 15:00:21;;;;;;;;;;;;;;;;;;5009914;28;19917;-67
2023/07/04 15:02:47;;;;;;;;;;;;;;;;;;5010909;28;20336;-67
2023/07/04 15:05:13;;;;;;;;;;;;;;;;;;5010643;28;19949;-67
2023/07/04 15:07:39;;;;;;;;;;;;;;;;;;5013572;28;20016;-67
2023/07/04 15:10:05;;;;;;;;;;;;;;;;;;5013171;28;19949;-67
2023/07/04 15:12:30;;;;;;;;;;;;;;;;;;5014126;28;20344;-67
2023/07/04 15:14:57;;;;;;;;;;;;;;;;;;5010976;28;20661;-67
2023/07/04 15:17:22;;;;;;;;;;;;;;;;;;5007234;28;19925;-67
2023/07/04 15:19:48;;;;;;;;;;;;;;;;;;5015920;28;20311;-67
2023/07/04 15:22:14;;;;;;;;;;;;;;;;;;5010280;28;19925;-67
2023/07/04 15:24:40;;;;;;;;;;;;;;;;;;5009447;28;19924;-68
2023/07/04 15:27:06;;;;;;;;;;;;;;;;;;5014756;28;19917;-67
2023/07/04 15:29:32;;;;;;;;;;;;;;;;;;5012531;28;19913;-67
2023/07/04 15:32:01;;;;;;;;;;;;;;;;;;5012672;28;20417;-67
2023/07/04 15:34:27;;;;;;;;;;;;;;;;;;5010447;28;19917;-67
2023/07/04 15:36:53;;;;;;;;;;;;;;;;;;5010254;28;20426;-67
2023/07/04 15:39:18;;;;;;;;;;;;;;;;;;4992319;28;19992;-67
2023/07/04 15:41:44;;;;;;;;;;;;;;;;;;5009559;28;19925;-67
2023/07/04 15:44:10;;;;;;;;;;;;;;;;;;4993009;28;20003;-67
2023/07/04 15:46:36;;;;;;;;;;;;;;;;;;5011799;28;19917;-66
2023/07/04 15:49:02;;;;;;;;;;;;;;;;;;5017045;28;20627;-67
2023/07/04 15:51:28;;;;;;;;;;;;;;;;;;5009869;28;20672;-68
2023/07/04 15:53:55;;;;;;;;;;;;;;;;;;5013478;28;19917;-67
2023/07/04 15:56:23;;;;;;;;;;;;;;;;;;5011125;28;19914;-68
2023/07/04 15:58:49;;;;;;;;;;;;;;;;;;5009945;28;19913;-68
2023/07/04 16:01:15;;;;;;;;;;;;;;;;;;5021434;28;19921;-68
2023/07/04 16:03:41;;;;;;;;;;;;;;;;;;5019771;28;19924;-68
2023/07/04 16:06:07;;;;;;;;;;;;;;;;;;5014001;28;20437;-67
2023/07/04 16:08:33;;;;;;;;;;;;;;;;;;5012157;28;19910;-67
2023/07/04 16:10:59;;;;;;;;;;;;;;;;;;5011587;28;19999;-67
2023/07/04 16:13:25;;;;;;;;;;;;;;;;;;5016594;28;19962;-67
2023/07/04 16:15:51;;;;;;;;;;;;;;;;;;5001923;28;19924;-67
2023/07/04 16:18:17;;;;;;;;;;;;;;;;;;5006217;28;20404;-62
2023/07/04 16:20:43;;;;;;;;;;;;;;;;;;5001895;28;19940;-63
2023/07/04 16:23:09;;;;;;;;;;;;;;;;;;5012126;28;20243;-62
2023/07/04 16:25:35;;;;;;;;;;;;;;;;;;5008934;28;19917;-63
2023/07/04 16:28:00;;;;;;;;;;;;;;;;;;5010807;28;20362;-63
2023/07/04 16:30:26;;;;;;;;;;;;;;;;;;5009460;28;19948;-63
2023/07/04 16:32:52;;;;;;;;;;;;;;;;;;5009969;28;19989;-62
2023/07/04 16:35:18;;;;;;;;;;;;;;;;;;5008936;28;19919;-63
2023/07/04 16:37:44;;;;;;;;;;;;;;;;;;5008100;28;19969;-62